Go Pro

Carpenter Technology (CRS) Institutional Ownership

Carpenter Technology logo
$467.54 +6.57 (+1.42%)
As of 10:07 AM Eastern
This is a fair market value price provided by Massive. Learn more.

Institutional Ownership Changes (13F Filings) for Carpenter Technology (NYSE:CRS)

Current
Institutional Ownership
Percentage
92.03%
Number of
Institutional Buyers
(last 12 months)
472
Total
Institutional Inflows
(last 12 months)
$29.51B
Number of
Institutional Sellers
(last 12 months)
245
Total
Institutional Outflows
(last 12 months)
$1.59B
Get CRS Insider Trade Alerts

Want to know when executives and insiders are buying or selling Carpenter Technology stock? Sign up for InsiderTrades.com's daily newsletter to get the latest insider transactions delivered to your inbox daily.

SMS is currently available in Australia, Belgium, Canada, France, Germany, Ireland, Italy, New Zealand, the Netherlands, Singapore, South Africa, Spain, Switzerland, the United Kingdom, and the United States. By entering your phone number and clicking the sign-up button, you agree to receive periodic text messages from MarketBeat at the phone number you submitted, including texts that may be sent using an automatic telephone dialing system. Message and data rates may apply. Message frequency will vary. Messages will consist of stock alerts, news stories, and partner advertisements/offers. Consent is not a condition of the purchase of any goods or services. Text HELP for help/customer support. Unsubscribe at any time by replying "STOP" to any text message that you receive from MarketBeat or by visiting our mailing preferences page. Read our full terms of service and privacy policy.
Skip Chart & View Institutional Buying and Selling Data

CRS Institutional Buying and Selling by Quarter

Carpenter Technology Major Shareholders & Ownership History

Reporting DateMajor Shareholder NameShares HeldMarket Value% of PortfolioQuarterly Change in SharesOwnership in CompanyDetails
8/27/2026 Corient Private Wealth LP6,858$4.23M0.0%+267.9%0.014%
8/27/2026 Optimize Financial Inc.484$299K0.1%N/A0.001%
8/26/2026 Amundi5,296$3.27M0.0%-20.2%0.011%
8/26/2026 Wellington Grp LLC2,066$1.27M0.3%+36.5%0.004%
8/26/2026 HighTower Advisors LLC19,086$11.77M0.0%+27.1%0.039%
8/25/2026 VIRGINIA RETIREMENT SYSTEMS ET Al12,482$7.70M0.0%N/A0.025%
8/24/2026 California State Teachers Retirement System33,892,274$20.91B0.1%+58,677.5%68.386%
8/23/2026 Wedmont Private Capital513$297K0.0%N/A0.001%
8/23/2026 HB Wealth Management LLC3,278$2.02M0.0%+67.9%0.007%
8/22/2026 AlphaGrep UK Ltd577$356K0.1%N/A0.001%
8/22/2026 MOR Wealth Management LLC565$349K0.1%N/A0.001%
8/22/2026 Investor s Fiduciary Advisor Network LLC418$257K0.1%N/A0.001%
8/22/2026 TD Waterhouse Canada Inc.12,237$7.46M0.0%+1,235.9%0.025%
8/22/2026 Concurrent Investment Advisors LLC21,206$13.08M0.1%+287.2%0.043%
8/22/2026 Power Wealth Management LLC647$399K0.1%N/A0.001%
8/21/2026 Strengthening Families & Communities LLC13,531$8.35M1.9%+0.6%0.027%
8/21/2026 Greenspring Advisors LLC439$271K0.0%N/A0.001%
8/21/2026 Nykredit A S1,618$998K0.0%N/A0.003%
8/21/2026 Bornite Capital Management LP90,220$55.65M7.0%-32.3%0.182%
8/21/2026 Aubrey Capital Management Ltd3,360$2.07M1.3%N/A0.007%
8/21/2026 Legacy Financial Advisors Inc.619$382K0.0%+18.4%0.001%
8/20/2026 Proficio Capital Partners LLC1,497$924K0.0%N/A0.003%
8/20/2026 Headlands Technologies LLC2,388$1.47M0.2%N/A0.005%
8/20/2026 Susquehanna Fundamental Investments LLC3,968$2.45M0.0%N/A0.008%
8/20/2026 Moore Capital Management LP6,523$4.02M0.1%-69.8%0.013%
8/20/2026 Sigma Planning Corp595$367K0.0%-9.3%0.001%
8/20/2026 Benjamin Edwards Inc.2,578$1.59M0.0%+62.4%0.005%
8/20/2026 Cookson Peirce & Co. Inc.9,352$5.77M0.2%+11.5%0.019%
8/20/2026 Northwestern Mutual Wealth Management Co.13,569$8.37M0.0%-6.2%0.027%
8/20/2026 Penn Capital Management Company LLC1,047$646K0.0%-74.0%0.002%
8/19/2026 UBS AM a distinct business unit of UBS ASSET MANAGEMENT AMERICAS LLC234,367$144.57M0.0%+5.2%0.473%
8/19/2026 Van ECK Associates Corp53,096$32.75M0.0%+30.7%0.107%
8/19/2026 Navellier & Associates Inc.52,573$32.43M2.6%+7.6%0.106%
8/19/2026 Hsbc Holdings PLC4,198$2.57M0.0%-10.3%0.008%
8/19/2026 Wellington Management Group LLP506,167$312.22M0.1%+82.2%1.021%
8/19/2026 Lombard Odier Asset Management Europe Ltd15,583$9.61M0.0%N/A0.031%
8/19/2026 Archer Investment Corp591$365K0.1%N/A0.001%
8/19/2026 Kingsview Wealth Management LLC844$521K0.0%N/A0.002%
8/18/2026 Beacon Pointe Advisors LLC1,502$926K0.0%N/A0.003%
8/18/2026 Kimelman & Baird LLC100$62K0.0%N/A0.000%
Iran War Shock: What I Was Told In That Private Meeting (Ad)

You’re Being LIED To About The Iran War Forget EVERYTHING you’ve heard about the Iran war. Especially the reasons why we’re bombing the country.tc pixel

8/18/2026 Glenview Trust Co356$220K0.0%N/A0.001%
8/18/2026 Empowered Funds LLC14,538$8.97M0.0%N/A0.029%
8/18/2026 United Capital Financial Advisors LLC1,054$650K0.0%N/A0.002%
8/18/2026 Dearborn Partners LLC3,550$2.19M0.1%N/A0.007%
8/18/2026 Public Employees Retirement System of Ohio14,370$8.86M0.0%N/A0.029%
8/17/2026 Capstone Investment Advisors LLC3,732$2.30M0.0%N/A0.008%
8/17/2026 Proficio Capital Partners LLC1,497$924K0.0%N/A0.003%
8/17/2026 Transamerica Financial Advisors LLC22,428$13.84M1.2%N/A0.045%
8/17/2026 Corient Private Wealth LP4,949$3.05M0.0%N/A0.010%
8/17/2026 Ausdal Financial Partners Inc.1,390$857K0.0%N/A0.003%
8/17/2026 Bank of America Corp DE300,227$185.19M0.0%N/A0.606%
8/15/2026 Advent International L.P.119,592$73.77M0.4%N/A0.241%
8/15/2026 Man Group plc6,927$4.27M0.0%N/A0.014%
8/15/2026 Jupiter Topco LLC21,188$13.06M0.0%N/A0.043%
8/15/2026 Kinetic Partners Management LP31,000$19.12M0.5%N/A0.063%
8/14/2026 Hsbc Holdings PLC4,198$2.57M0.0%N/A0.008%
8/14/2026 PDT Partners LLC5,832$3.60M0.2%N/A0.012%
8/14/2026 Castleark Management LLC2,480$1.53M0.0%N/A0.005%
8/14/2026 Nicholas Investment Partners LP43,653$26.93M1.5%N/A0.088%
8/14/2026 Legal & General Group Plc76,891$47.43M0.0%N/A0.155%
8/14/2026 The Manufacturers Life Insurance Company27,357$16.88M0.0%N/A0.055%
8/14/2026 Van Hulzen Asset Management LLC612$378K0.0%N/A0.001%
8/14/2026 SurgoCap Partners LP686,473$423.44M13.7%N/A1.382%
8/14/2026 Paradigm Capital Management Inc. NY15,600$9.62M0.3%N/A0.031%
8/14/2026 Dearborn Partners LLC3,550$1.40M0.1%N/A0.007%
8/14/2026 Algert Global LLC52,451$32.35M0.4%+31.1%0.106%
8/14/2026 Ames National Corp400$247K0.1%N/A0.001%
8/13/2026 Gallo Partners LP780$481K1.1%N/A0.002%
8/13/2026 Investor s Fiduciary Advisor Network LLC418$257K0.1%N/A0.001%
8/13/2026 Cibc World Market Inc.12,325$7.60M0.0%N/A0.025%
8/13/2026 Tribune Investment Group LP3,580$2.21M0.9%-81.7%0.007%
8/13/2026 Sanctuary Advisors LLC4,828$2.98M0.0%N/A0.010%
8/13/2026 Connor Clark & Lunn Investment Management Ltd.90,007$55.52M0.1%N/A0.181%
8/13/2026 Meiji Yasuda Asset Management Co Ltd.1,147$708K0.0%N/A0.002%
8/13/2026 Globeflex Capital L P7,937$4.90M0.6%N/A0.016%
8/12/2026 Commerce Bank1,694$1.05M0.0%N/A0.003%
8/12/2026 Northwestern Mutual Wealth Management Co.13,569$8.37M0.0%N/A0.027%
8/12/2026 Quantbot Technologies LP2,316$1.43M0.1%N/A0.005%
8/12/2026 Evolve Private Wealth LLC1,655$1.02M0.1%N/A0.003%
8/12/2026 Westpac Banking Corp1,287$794K0.0%N/A0.003%
8/12/2026 William Blair Investment Management LLC332,607$205.17M0.6%N/A0.669%
8/12/2026 Landscape Capital Management L.L.C.2,195$1.35M0.1%N/A0.004%
8/12/2026 EP Wealth Advisors LLC1,860$1.15M0.0%N/A0.004%
8/12/2026 Ieq Capital LLC67,258$41.49M0.2%N/A0.135%
8/12/2026 Callan Family Office LLC542$334K0.0%N/A0.001%
8/12/2026 C M Bidwell & Associates Ltd.91$56K0.0%N/A0.000%
8/11/2026 Keating Financial Advisory Services Inc.47$29K0.0%N/A0.000%
8/11/2026 Allworth Financial LP8,640$5.33M0.0%N/A0.017%
8/11/2026 Greenspring Advisors LLC439$271K0.0%N/A0.001%
8/11/2026 Silvant Capital Management LLC8,108$5.00M0.1%N/A0.016%
Louis Navellier: My #1 AI stock for 2026 (name & ticker inside) (Ad)

Louis Navellier's Stock Grader system helped him flag Nvidia before its 82,000% run and has identified the top S&P 500 stock for 12 years running—and today, he's giving away his #1 AI stock pick for 2026, free. This company's sales are up 28% year over year, it holds over 30,000 patents in wireless and video technology, and it just earned an A-rating in his proprietary Stock Grader system that has cost him $9 million to build and maintain.tc pixel

Get the name and ticker of Louis Navellier's #1 AI stock free
8/11/2026 Vise Technologies Inc.1,971$1.22M0.0%N/A0.004%
8/11/2026 Lisanti Capital Growth LLC11,665$7.20M1.6%N/A0.023%
8/10/2026 AssuredPartners Investment Advisors LLC562$347K0.0%N/A0.001%
8/10/2026 West Family Investments Inc.863$532K0.2%N/A0.002%
8/10/2026 NewEdge Wealth LLC2,090$1.29M0.0%N/A0.004%
8/10/2026 Great Lakes Advisors LLC10,224$6.31M0.0%N/A0.021%
8/10/2026 Diversify Advisory Services LLC8,125$4.72M0.1%N/A0.016%
8/8/2026 Wealthfront Advisers LLC949$585K0.0%N/A0.002%
8/8/2026 Meeder Advisory Services Inc.877$541K0.0%N/A0.002%
8/8/2026 Meeder Asset Management Inc.377$233K0.0%N/A0.001%


CRS Institutional Ownership - Frequently Asked Questions

During the previous two years, 722 institutional investors and hedge funds held shares of Carpenter Technology. The most heavily invested institutionals were California State Teachers Retirement System ($20.91B), BlackRock Inc. ($3.83B), Vanguard Group Inc. ($1.42B), FMR LLC ($754.30M), Invesco Ltd. ($652.24M), State Street Corp ($638.82M), and Egerton Capital UK LLP ($488.95M).Learn more on Carpenter Technology's institutional investors.

92.03% of Carpenter Technology's stock is owned by institutional investors. Learn more on CRS's institutional investor holdings.

Of the 658 institutional investors that purchased Carpenter Technology's stock in the last 24 months, the following investors and hedge funds have bought the highest volume of shares: California State Teachers Retirement System ($33.85M), BlackRock Inc. ($6.22M), FMR LLC ($2.09M), Egerton Capital UK LLP ($2.00M), SurgoCap Partners LP ($1.74M), Norges Bank ($1.39M), and Invesco Ltd. ($1.26M).

Institutional investors have bought a total of 53,079,537 shares in the last 24 months. This purchase volume represents approximately $29.51B in transactions.

Of the 245 institutional investors that sold Carpenter Technology's stock in the last 24 months, the following investors and hedge funds have sold the highest volume of shares: Dimensional Fund Advisors LP ($633.21K), Egerton Capital UK LLP ($534.73K), Advent International L.P. ($438.60K), Morgan Stanley ($258.86K), Invesco Ltd. ($232.16K), Hawk Ridge Capital Management LP ($223.90K), and Vanguard Group Inc. ($152.14K).

Institutional investors have sold a total of 5,252,540 shares in the last 24 months. This volume of shares sold represents approximately $1.59B in transactions.



Institutional ownership data for NYSE:CRS is compiled from quarterly 13F filings submitted to the U.S. Securities and Exchange Commission (SEC), with the most recent received on 8/27/2026. New 13F filings are added each quarter as they're published.
From Our Partners